KISO/ISO METAR and TAF weather

Enter ICAO airport designator
Station Type Date Time Source
KISO METAR 2019/12/08 23:56 UTC NOAA

KISO 082356Z 01006KT 3SM DZ OVC005 10/09 A3032


Station Type Date Time Source
KISO Decoded METAR 2019/12/08 23:56 UTC NOAA

Kinston, Kinston Regional Jetport at Stallings Field, NC, United States (KISO) 35-20N 077-37W
Dec 08, 2019 - 06:56 PM EST / 2019.12.08 2356 UTC
Wind: from the N (010 degrees) at 7 MPH (6 KT):0
Visibility: 3 mile(s):0
Sky conditions: overcast
Weather: drizzle
Temperature: 50 F (10 C)
Dew Point: 48 F (9 C)
Relative Humidity: 93%
Pressure (altimeter): 30.32 in. Hg (1026 hPa)
ob: KISO 082356Z 01006KT 3SM DZ OVC005 10/09 A3032
cycle: 0

Station Type Date Time Source
KISO TAF 2019/12/08 23:34 UTC NOAA

TAF
AMD KISO 082231Z 0823/0918 05005KT P6SM OVC025
FM090000 02005KT P6SM VCSH OVC025
FM090300 00000KT 3SM -SHRA SCT008 OVC015
FM091200 17004KT 3SM BR OVC008
FM091500 20008G13KT P6SM BKN015
AMD LTD TO CLD VIS AND WIND

Example: see airport list